createdAt,value
2019-04-01T00:00:21.045Z,77.12
2019-04-01T00:01:21.041Z,78.16
2019-04-01T00:02:21.031Z,77.88
2019-04-01T00:03:21.022Z,78.16
2019-04-01T00:04:21.008Z,77.69
2019-04-01T00:05:20.995Z,77.59
2019-04-01T00:06:20.980Z,77.69
2019-04-01T00:07:20.974Z,78.16
2019-04-01T00:08:20.967Z,77.88
2019-04-01T00:09:20.948Z,77.78
2019-04-01T00:10:20.945Z,77.88
2019-04-01T00:11:20.931Z,77.78
2019-04-01T00:12:20.921Z,77.88
2019-04-01T00:13:20.906Z,77.69
2019-04-01T00:14:20.893Z,77.97
2019-04-01T00:15:20.882Z,77.78
2019-04-01T00:16:20.886Z,78.07
2019-04-01T00:17:20.867Z,77.78
2019-04-01T00:18:20.848Z,77.78
2019-04-01T00:19:20.839Z,77.97
2019-04-01T00:20:20.832Z,78.07
2019-04-01T00:21:20.812Z,77.97
2019-04-01T00:22:20.814Z,77.97
2019-04-01T00:23:20.796Z,78.54
2019-04-01T00:24:20.790Z,78.26
2019-04-01T00:25:20.770Z,77.97
2019-04-01T00:26:20.759Z,77.97
2019-04-01T00:27:20.759Z,78.73
2019-04-01T00:28:20.741Z,78.83
2019-04-01T00:29:20.730Z,77.97
2019-04-01T00:30:20.719Z,78.64
2019-04-01T00:31:20.703Z,78.83
2019-04-01T00:32:20.689Z,79.21
2019-04-01T00:33:20.686Z,79.39
2019-04-01T00:34:20.671Z,79.39
2019-04-01T00:35:20.659Z,79.11
2019-04-01T00:36:20.642Z,79.49
2019-04-01T00:37:20.639Z,79.49
2019-04-01T00:38:20.630Z,79.39
2019-04-01T00:39:20.617Z,79.30
2019-04-01T00:40:20.602Z,79.58
2019-04-01T00:41:20.597Z,79.77
2019-04-01T00:42:20.575Z,80.06
2019-04-01T00:43:20.570Z,79.96
2019-04-01T00:44:20.561Z,79.68
2019-04-01T00:45:20.549Z,79.96
2019-04-01T00:46:20.539Z,80.06
2019-04-01T00:47:20.518Z,79.96
2019-04-01T00:48:20.515Z,79.30
2019-04-01T00:49:20.505Z,79.11
2019-04-01T00:50:20.487Z,79.49
2019-04-01T00:51:20.484Z,79.87
2019-04-01T00:52:20.469Z,80.15
2019-04-01T00:53:20.459Z,79.49
2019-04-01T00:54:20.518Z,79.68
2019-04-01T00:55:20.434Z,79.58
2019-04-01T00:56:20.416Z,79.87
2019-04-01T00:57:20.407Z,80.25
2019-04-01T00:58:20.399Z,80.15
2019-04-01T00:59:20.389Z,80.25
2019-04-01T01:00:20.380Z,79.11
2019-04-01T01:01:20.371Z,79.49
2019-04-01T01:02:20.355Z,79.96
2019-04-01T01:03:20.337Z,80.06
2019-04-01T01:04:20.328Z,80.63
2019-04-01T01:05:20.324Z,80.25
2019-04-01T01:06:20.309Z,80.53
2019-04-01T01:07:20.298Z,80.53
2019-04-01T01:08:20.286Z,80.82
2019-04-01T01:09:20.271Z,80.82
2019-04-01T01:10:20.264Z,80.25
2019-04-01T01:11:20.259Z,80.53
2019-04-01T01:12:20.239Z,80.72
2019-04-01T01:13:20.231Z,80.82
2019-04-01T01:14:20.216Z,80.72
2019-04-01T01:15:20.211Z,80.63
2019-04-01T01:16:20.191Z,81.38
2019-04-01T01:17:20.185Z,80.91
2019-04-01T01:18:20.175Z,81.48
2019-04-01T01:19:20.161Z,81.86
2019-04-01T01:20:20.155Z,81.38
2019-04-01T01:21:20.141Z,81.86
2019-04-01T01:22:20.127Z,81.76
2019-04-01T01:23:20.113Z,82.90
2019-04-01T01:24:20.109Z,82.24
2019-04-01T01:25:20.090Z,81.86
2019-04-01T01:26:20.807Z,81.76
2019-04-01T01:27:20.068Z,82.33
2019-04-01T01:28:20.064Z,82.43
2019-04-01T01:29:20.046Z,82.52
2019-04-01T01:30:20.035Z,82.33
2019-04-01T01:31:20.810Z,82.62
2019-04-01T01:32:20.019Z,82.43
2019-04-01T01:33:19.996Z,83.18
2019-04-01T01:34:19.989Z,82.33
2019-04-01T01:35:19.980Z,82.24
2019-04-01T01:36:19.969Z,82.43
2019-04-01T01:37:19.960Z,82.81
2019-04-01T01:38:19.943Z,83.47
2019-04-01T01:39:19.931Z,84.32
2019-04-01T01:40:19.922Z,83.00
2019-04-01T01:41:19.910Z,84.42
2019-04-01T01:42:19.898Z,83.94
2019-04-01T01:43:19.891Z,83.75
2019-04-01T01:44:19.876Z,83.56
2019-04-01T01:45:19.861Z,84.61
2019-04-01T01:46:19.850Z,84.23
2019-04-01T01:47:19.843Z,84.42
2019-04-01T01:48:19.830Z,84.61
2019-04-01T01:49:19.819Z,84.13
2019-04-01T01:50:19.820Z,84.04
2019-04-01T01:51:19.795Z,84.13
2019-04-01T01:52:34.318Z,84.42
2019-04-01T01:53:19.780Z,85.27
2019-04-01T01:54:19.759Z,85.36
2019-04-01T01:55:19.753Z,84.04
2019-04-01T01:56:19.744Z,85.13
2019-04-01T01:57:19.725Z,85.42
2019-04-01T01:58:19.722Z,84.99
2019-04-01T01:59:19.702Z,85.23
2019-04-01T02:00:19.695Z,85.51
2019-04-01T02:01:19.681Z,85.23
2019-04-01T02:02:19.669Z,85.99
2019-04-01T02:03:19.659Z,84.94
2019-04-01T02:04:19.648Z,84.28
2019-04-01T02:05:19.637Z,86.18
2019-04-01T02:06:19.627Z,86.74
2019-04-01T02:07:19.609Z,87.50
2019-04-01T02:08:19.599Z,86.08
2019-04-01T02:09:19.586Z,87.59
2019-04-01T02:10:19.578Z,87.78
2019-04-01T02:11:19.569Z,88.64
2019-04-01T02:12:19.556Z,87.69
2019-04-01T02:13:20.262Z,87.98
2019-04-01T02:14:19.536Z,87.12
2019-04-01T02:15:19.521Z,87.50
2019-04-01T02:16:19.512Z,85.99
2019-04-01T02:17:19.499Z,88.26
2019-04-01T02:18:19.487Z,88.82
2019-04-01T02:19:19.479Z,89.39
2019-04-01T02:20:19.461Z,88.26
2019-04-01T02:21:19.459Z,88.92
2019-04-01T02:22:19.434Z,89.58
2019-04-01T02:23:19.431Z,89.01
2019-04-01T02:24:19.419Z,89.77
2019-04-01T02:25:19.410Z,89.30
2019-04-01T02:26:19.392Z,89.77
2019-04-01T02:27:19.384Z,90.25
2019-04-01T02:28:19.368Z,90.53
2019-04-01T02:29:19.364Z,90.81
2019-04-01T02:30:19.356Z,90.72
2019-04-01T02:31:19.339Z,91.10
2019-04-01T02:32:19.367Z,90.53
2019-04-01T02:33:19.316Z,90.34
2019-04-01T02:34:19.302Z,90.34
2019-04-01T02:35:19.291Z,90.72
2019-04-01T02:36:19.277Z,91.19
2019-04-01T02:37:19.270Z,89.96
2019-04-01T02:38:19.256Z,90.53
2019-04-01T02:39:19.248Z,91.76
2019-04-01T02:40:21.914Z,90.63
2019-04-01T02:41:19.224Z,91.76
2019-04-01T02:42:19.213Z,92.05
2019-04-01T02:43:19.201Z,92.33
2019-04-01T02:44:19.190Z,92.99
2019-04-01T02:45:19.189Z,93.18
2019-04-01T02:46:19.164Z,92.99
2019-04-01T02:47:19.150Z,92.71
2019-04-01T02:48:19.141Z,93.18
2019-04-01T02:49:19.143Z,93.84
2019-04-01T02:50:19.117Z,94.23
2019-04-01T02:51:19.110Z,94.42
2019-04-01T02:52:19.100Z,93.75
2019-04-01T02:53:19.083Z,93.08
2019-04-01T02:54:19.077Z,94.23
2019-04-01T02:55:19.065Z,94.13
2019-04-01T02:56:19.053Z,94.04
2019-04-01T02:57:19.037Z,94.32
2019-04-01T02:58:19.024Z,93.94
2019-04-01T02:59:19.018Z,94.70
2019-04-01T03:00:19.016Z,94.60
2019-04-01T03:01:18.989Z,94.13
2019-04-01T03:02:18.975Z,94.70
2019-04-01T03:03:19.008Z,94.79
2019-04-01T03:04:18.961Z,94.98
2019-04-01T03:05:18.944Z,94.70
2019-04-01T03:06:18.943Z,95.07
2019-04-01T03:07:18.922Z,95.07
2019-04-01T03:08:18.908Z,95.74
2019-04-01T03:09:18.900Z,96.12
2019-04-01T03:10:18.887Z,94.32
2019-04-01T03:11:18.877Z,95.36
2019-04-01T03:12:18.865Z,95.55
2019-04-01T03:13:18.867Z,95.26
2019-04-01T03:14:18.839Z,94.60
2019-04-01T03:15:18.826Z,94.70
2019-04-01T03:16:18.815Z,94.70
2019-04-01T03:17:18.815Z,96.02
2019-04-01T03:18:18.796Z,96.40
2019-04-01T03:19:18.781Z,97.35
2019-04-01T03:20:18.771Z,96.69
2019-04-01T03:21:18.757Z,96.40
2019-04-01T03:22:18.750Z,97.06
2019-04-01T03:23:18.733Z,97.25
2019-04-01T03:24:18.828Z,97.25
2019-04-01T03:25:18.712Z,97.77
2019-04-01T03:26:18.700Z,97.16
2019-04-01T03:27:18.690Z,97.30
2019-04-01T03:28:18.680Z,97.11
2019-04-01T03:29:18.672Z,98.25
2019-04-01T03:30:18.660Z,97.73
2019-04-01T03:31:18.669Z,97.92
2019-04-01T03:32:18.628Z,97.30
2019-04-01T03:33:18.622Z,98.25
2019-04-01T03:34:18.607Z,99.10
2019-04-01T03:35:18.600Z,99.10
2019-04-01T03:36:18.600Z,99.66
2019-04-01T03:37:18.579Z,99.10
2019-04-01T03:38:18.565Z,99.85
2019-04-01T03:39:18.547Z,98.91
2019-04-01T03:40:18.537Z,98.53
2019-04-01T03:41:18.519Z,99.76
2019-04-01T03:42:18.516Z,99.29
2019-04-01T03:43:18.503Z,99.48
2019-04-01T03:44:18.491Z,99.66
2019-04-01T03:45:18.474Z,99.95
2019-04-01T03:46:18.465Z,99.48
2019-04-01T03:47:18.455Z,99.48
2019-04-01T03:48:18.438Z,99.66
2019-04-01T03:49:18.432Z,99.38
2019-04-01T03:50:18.422Z,99.66
2019-04-01T03:51:18.405Z,99.85
2019-04-01T03:52:18.393Z,99.38
2019-04-01T03:53:18.388Z,99.66
2019-04-01T03:54:18.372Z,99.57
2019-04-01T03:55:18.361Z,99.99
2019-04-01T03:56:18.358Z,99.99
2019-04-01T03:57:18.340Z,99.99
2019-04-01T03:58:18.323Z,99.99
2019-04-01T03:59:18.317Z,99.99
2019-04-01T04:00:18.305Z,99.99
2019-04-01T04:01:18.293Z,99.99
2019-04-01T04:02:18.278Z,99.99
2019-04-01T04:03:18.268Z,99.99
2019-04-01T04:04:18.256Z,98.91
2019-04-01T04:05:18.240Z,99.76
2019-04-01T04:06:18.234Z,99.66
2019-04-01T04:07:18.227Z,99.76
2019-04-01T04:08:18.210Z,99.99
2019-04-01T04:09:18.203Z,99.99
2019-04-01T04:10:18.187Z,99.99
2019-04-01T04:11:18.177Z,99.99
2019-04-01T04:12:18.156Z,99.99
2019-04-01T04:13:18.145Z,99.99
2019-04-01T04:14:18.146Z,99.99
2019-04-01T04:15:18.132Z,99.99
2019-04-01T04:16:18.111Z,99.99
2019-04-01T04:17:18.098Z,99.99
2019-04-01T04:18:18.092Z,99.99
2019-04-01T04:19:18.086Z,99.99
2019-04-01T04:20:18.068Z,99.99
2019-04-01T04:21:18.068Z,99.99
2019-04-01T04:22:18.044Z,99.99
2019-04-01T04:23:18.027Z,99.99
2019-04-01T04:24:18.018Z,99.99
2019-04-01T04:25:18.012Z,99.99
2019-04-01T04:26:17.999Z,99.99
2019-04-01T04:27:17.990Z,99.99
2019-04-01T04:28:17.975Z,99.99
2019-04-01T04:29:17.961Z,99.99
2019-04-01T04:30:17.953Z,99.99
2019-04-01T04:31:17.958Z,99.99
2019-04-01T04:32:17.925Z,99.99
2019-04-01T04:33:17.916Z,99.99
2019-04-01T04:34:17.901Z,99.99
2019-04-01T04:35:17.893Z,99.99
2019-04-01T04:36:17.882Z,99.99
2019-04-01T04:37:17.984Z,99.99
2019-04-01T04:38:17.860Z,99.99
2019-04-01T04:39:17.840Z,99.99
2019-04-01T04:40:17.834Z,99.99
2019-04-01T04:41:17.816Z,99.99
2019-04-01T04:42:17.806Z,99.99
2019-04-01T04:43:17.791Z,99.99
2019-04-01T04:44:17.788Z,99.99
2019-04-01T04:45:17.789Z,99.99
2019-04-01T04:46:20.854Z,99.99
2019-04-01T04:47:17.754Z,99.99
2019-04-01T04:48:17.764Z,99.99
2019-04-01T04:49:17.722Z,99.99
2019-04-01T04:50:17.712Z,99.99
2019-04-01T04:51:17.699Z,99.99
2019-04-01T04:52:17.699Z,99.99
2019-04-01T04:53:17.686Z,99.99
2019-04-01T04:54:17.664Z,99.99
2019-04-01T04:55:17.654Z,99.99
2019-04-01T04:56:17.641Z,99.99
2019-04-01T04:57:20.213Z,99.99
2019-04-01T04:58:17.620Z,99.99
2019-04-01T04:59:17.603Z,99.99
2019-04-01T05:00:17.594Z,99.99
2019-04-01T05:01:17.580Z,99.99
2019-04-01T05:02:17.570Z,99.99
2019-04-01T05:03:17.557Z,99.99
2019-04-01T05:04:17.549Z,99.99
2019-04-01T05:05:18.357Z,99.99
2019-04-01T05:06:17.539Z,99.99
2019-04-01T05:07:17.508Z,99.99
2019-04-01T05:08:17.496Z,99.99
2019-04-01T05:09:17.492Z,99.99
2019-04-01T05:10:17.476Z,99.99
2019-04-01T05:11:17.460Z,99.99
2019-04-01T05:12:17.448Z,99.99
2019-04-01T05:13:17.441Z,99.99
2019-04-01T05:14:17.435Z,99.99
2019-04-01T05:15:17.416Z,99.99
2019-04-01T05:16:17.403Z,99.99
2019-04-01T05:17:17.392Z,99.99
2019-04-01T05:18:17.374Z,99.99
2019-04-01T05:19:17.375Z,99.99
2019-04-01T05:20:17.368Z,99.99
2019-04-01T05:21:17.348Z,99.99
2019-04-01T05:22:17.332Z,99.99
2019-04-01T05:23:17.322Z,99.99
2019-04-01T05:24:17.311Z,99.99
2019-04-01T05:25:17.291Z,99.99
2019-04-01T05:26:17.283Z,99.99
2019-04-01T05:27:17.276Z,99.66
2019-04-01T05:28:17.259Z,99.38
2019-04-01T05:29:17.250Z,99.10
2019-04-01T05:30:17.238Z,99.10
2019-04-01T05:31:17.228Z,99.52
2019-04-01T05:32:17.214Z,98.77
2019-04-01T05:33:17.201Z,98.96
2019-04-01T05:34:17.189Z,98.68
2019-04-01T05:35:17.181Z,98.11
2019-04-01T05:36:17.167Z,98.01
2019-04-01T05:37:17.157Z,97.63
2019-04-01T05:38:17.146Z,98.30
2019-04-01T05:39:17.130Z,97.54
2019-04-01T05:40:17.121Z,97.54
2019-04-01T05:41:17.103Z,96.78
2019-04-01T05:42:17.097Z,96.88
2019-04-01T05:43:17.083Z,96.50
2019-04-01T05:44:17.071Z,96.31
2019-04-01T05:45:17.866Z,96.31
2019-04-01T05:46:17.051Z,95.83
2019-04-01T05:47:17.043Z,95.64
2019-04-01T05:48:17.026Z,95.74
2019-04-01T05:49:17.018Z,95.26
2019-04-01T05:50:17.003Z,95.45
2019-04-01T05:51:17.009Z,94.89
2019-04-01T05:52:17.014Z,94.32
2019-04-01T05:53:16.974Z,94.23
2019-04-01T05:54:16.966Z,93.84
2019-04-01T05:55:16.947Z,93.94
2019-04-01T05:56:16.936Z,93.46
2019-04-01T05:57:16.929Z,93.46
2019-04-01T05:58:16.907Z,92.90
2019-04-01T05:59:16.901Z,92.71
2019-04-01T06:00:16.895Z,91.76
2019-04-01T06:01:16.886Z,91.19
2019-04-01T06:02:16.883Z,91.57
2019-04-01T06:03:16.858Z,90.44
2019-04-01T06:04:16.847Z,90.81
2019-04-01T06:05:16.836Z,89.91
2019-04-01T06:06:16.825Z,90.48
2019-04-01T06:07:16.816Z,89.53
2019-04-01T06:08:16.795Z,89.06
2019-04-01T06:09:16.788Z,88.49
2019-04-01T06:10:16.775Z,88.59
2019-04-01T06:11:16.764Z,87.73
2019-04-01T06:12:16.756Z,87.35
2019-04-01T06:13:16.745Z,87.35
2019-04-01T06:14:16.734Z,86.69
2019-04-01T06:15:16.737Z,86.12
2019-04-01T06:16:16.715Z,85.17
2019-04-01T06:17:16.699Z,84.80
2019-04-01T06:18:16.692Z,84.89
2019-04-01T06:19:16.682Z,84.32
2019-04-01T06:20:16.669Z,84.89
2019-04-01T06:21:16.658Z,84.32
2019-04-01T06:22:16.643Z,83.85
2019-04-01T06:23:16.643Z,83.28
2019-04-01T06:24:16.621Z,83.94
2019-04-01T06:25:16.708Z,83.18
2019-04-01T06:26:16.604Z,81.38
2019-04-01T06:27:16.818Z,81.29
2019-04-01T06:28:16.587Z,81.48
2019-04-01T06:29:16.570Z,81.20
2019-04-01T06:30:16.554Z,80.67
2019-04-01T06:31:16.545Z,79.91
2019-04-01T06:32:16.536Z,79.34
2019-04-01T06:33:16.529Z,78.49
2019-04-01T06:34:16.514Z,77.92
2019-04-01T06:35:16.505Z,76.50
2019-04-01T06:36:16.503Z,75.74
2019-04-01T06:37:16.480Z,75.78
2019-04-01T06:38:16.473Z,75.68
2019-04-01T06:39:16.460Z,75.40
2019-04-01T06:40:16.451Z,74.35
2019-04-01T06:41:16.446Z,74.35
2019-04-01T06:42:16.428Z,74.35
2019-04-01T06:43:16.423Z,73.60
2019-04-01T06:44:16.422Z,73.88
2019-04-01T06:45:16.399Z,72.93
2019-04-01T06:46:16.389Z,73.69
2019-04-01T06:47:16.379Z,73.03
2019-04-01T06:48:16.369Z,72.36
2019-04-01T06:49:16.349Z,72.40
2019-04-01T06:50:16.347Z,71.73
2019-04-01T06:51:16.339Z,71.92
2019-04-01T06:52:16.326Z,72.59
2019-04-01T06:53:16.318Z,71.83
2019-04-01T06:54:16.299Z,71.73
2019-04-01T06:55:16.299Z,72.02
2019-04-01T06:56:16.291Z,70.98
2019-04-01T06:57:16.276Z,70.21
2019-04-01T06:58:16.264Z,70.31
2019-04-01T06:59:16.260Z,70.40
2019-04-01T07:00:16.243Z,70.44
2019-04-01T07:01:16.238Z,69.30
2019-04-01T07:02:16.229Z,69.59
2019-04-01T07:03:18.620Z,69.11
2019-04-01T07:04:16.211Z,67.88
2019-04-01T07:05:16.201Z,67.97
2019-04-01T07:06:16.187Z,68.44
2019-04-01T07:07:19.185Z,68.16
2019-04-01T07:08:16.171Z,66.74
2019-04-01T07:09:16.157Z,66.46
2019-04-01T07:10:16.159Z,66.08
2019-04-01T07:11:16.142Z,65.25
2019-04-01T07:12:16.136Z,65.54
2019-04-01T07:13:16.124Z,65.54
2019-04-01T07:14:16.112Z,65.54
2019-04-01T07:15:16.099Z,65.16
2019-04-01T07:16:16.355Z,65.06
2019-04-01T07:17:16.082Z,64.69
2019-04-01T07:18:16.080Z,64.21
2019-04-01T07:19:16.064Z,63.64
2019-04-01T07:20:16.052Z,63.17
2019-04-01T07:21:16.055Z,63.26
2019-04-01T07:22:16.042Z,62.94
2019-04-01T07:23:16.042Z,63.32
2019-04-01T07:24:16.025Z,63.07
2019-04-01T07:25:16.013Z,64.40
2019-04-01T07:26:16.006Z,64.11
2019-04-01T07:27:15.998Z,63.92
2019-04-01T07:28:16.005Z,64.02
2019-04-01T07:29:15.982Z,64.11
2019-04-01T07:30:15.973Z,64.21
2019-04-01T07:31:15.970Z,63.64
2019-04-01T07:32:15.957Z,62.59
2019-04-01T07:33:15.951Z,62.12
2019-04-01T07:34:15.939Z,61.83
2019-04-01T07:35:16.005Z,61.83
2019-04-01T07:36:15.920Z,62.69
2019-04-01T07:37:15.916Z,61.83
2019-04-01T07:38:15.907Z,62.02
2019-04-01T07:39:15.892Z,61.55
2019-04-01T07:40:15.900Z,60.88
2019-04-01T07:41:15.877Z,61.07
2019-04-01T07:42:15.873Z,61.29
2019-04-01T07:43:15.866Z,60.91
2019-04-01T07:44:15.856Z,61.01
2019-04-01T07:45:15.848Z,61.10
2019-04-01T07:46:15.838Z,59.96
2019-04-01T07:47:15.823Z,59.49
2019-04-01T07:48:15.922Z,58.85
2019-04-01T07:49:15.813Z,58.95
2019-04-01T07:50:15.814Z,58.66
2019-04-01T07:51:15.824Z,58.47
2019-04-01T07:52:15.797Z,57.81
2019-04-01T07:53:15.779Z,58.09
2019-04-01T07:54:18.537Z,58.28
2019-04-01T07:55:15.757Z,58.00
2019-04-01T07:56:15.757Z,57.90
2019-04-01T07:57:15.741Z,58.00
2019-04-01T07:58:15.737Z,57.33
2019-04-01T07:59:15.726Z,57.33
2019-04-01T08:00:15.731Z,56.95
2019-04-01T08:01:15.711Z,57.24
2019-04-01T08:02:15.701Z,57.90
2019-04-01T08:03:15.689Z,58.40
2019-04-01T08:04:15.690Z,58.03
2019-04-01T08:05:15.712Z,57.07
2019-04-01T08:06:15.671Z,56.60
2019-04-01T08:07:15.663Z,56.60
2019-04-01T08:08:15.650Z,56.88
2019-04-01T08:09:15.671Z,56.41
2019-04-01T08:10:15.643Z,55.74
2019-04-01T08:11:15.627Z,56.03
2019-04-01T08:12:15.622Z,56.41
2019-04-01T08:13:15.620Z,56.41
2019-04-01T08:14:15.610Z,56.41
2019-04-01T08:15:15.597Z,56.31
2019-04-01T08:16:15.588Z,55.65
2019-04-01T08:17:15.581Z,55.68
2019-04-01T08:18:15.569Z,54.98
2019-04-01T08:19:15.565Z,54.91
2019-04-01T08:20:15.555Z,55.49
2019-04-01T08:21:15.549Z,55.39
2019-04-01T08:22:15.542Z,55.10
2019-04-01T08:23:15.533Z,55.10
2019-04-01T08:24:15.531Z,55.20
2019-04-01T08:25:15.517Z,54.72
2019-04-01T08:26:15.510Z,53.96
2019-04-01T08:27:15.496Z,53.67
2019-04-01T08:28:15.494Z,53.96
2019-04-01T08:29:29.373Z,54.53
2019-04-01T08:30:15.473Z,54.44
2019-04-01T08:31:15.469Z,53.80
2019-04-01T08:32:15.468Z,54.27
2019-04-01T08:33:15.459Z,53.42
2019-04-01T08:34:15.450Z,53.32
2019-04-01T08:35:15.444Z,53.61
2019-04-01T08:36:15.454Z,53.61
2019-04-01T08:37:15.430Z,53.04
2019-04-01T08:38:15.425Z,52.47
2019-04-01T08:39:15.419Z,51.99
2019-04-01T08:40:15.413Z,52.28
2019-04-01T08:41:15.407Z,52.28
2019-04-01T08:42:15.398Z,52.28
2019-04-01T08:43:15.403Z,52.49
2019-04-01T08:44:15.461Z,52.30
2019-04-01T08:45:15.380Z,51.64
2019-04-01T08:46:15.376Z,51.82
2019-04-01T08:47:15.370Z,51.54
2019-04-01T08:48:15.373Z,52.01
2019-04-01T08:49:15.364Z,51.45
2019-04-01T08:50:15.372Z,51.35
2019-04-01T08:51:15.357Z,51.35
2019-04-01T08:52:15.351Z,51.37
2019-04-01T08:53:15.350Z,51.47
2019-04-01T08:54:15.363Z,50.80
2019-04-01T08:55:15.338Z,50.52
2019-04-01T08:56:15.341Z,50.16
2019-04-01T08:57:15.340Z,50.35
2019-04-01T08:58:16.949Z,49.49
2019-04-01T08:59:15.335Z,48.92
2019-04-01T09:00:15.321Z,48.44
2019-04-01T09:01:15.316Z,49.02
2019-04-01T09:02:18.135Z,48.16
2019-04-01T09:03:15.310Z,48.16
2019-04-01T09:04:15.314Z,48.25
2019-04-01T09:05:15.313Z,47.68
2019-04-01T09:06:15.307Z,47.87
2019-04-01T09:07:15.304Z,48.16
2019-04-01T09:08:15.302Z,47.87
2019-04-01T09:09:15.300Z,47.97
2019-04-01T09:10:15.297Z,48.35
2019-04-01T09:11:15.301Z,49.02
2019-04-01T09:12:15.295Z,48.92
2019-04-01T09:13:15.295Z,48.25
2019-04-01T09:14:15.292Z,49.23
2019-04-01T09:15:15.294Z,47.89
2019-04-01T09:16:15.294Z,46.84
2019-04-01T09:17:15.284Z,47.03
2019-04-01T09:18:15.304Z,47.32
2019-04-01T09:19:15.288Z,49.07
2019-04-01T09:20:15.301Z,48.49
2019-04-01T09:21:15.292Z,46.68
2019-04-01T09:22:15.286Z,45.92
2019-04-01T09:23:15.281Z,46.18
2019-04-01T09:24:15.288Z,45.89
2019-04-01T09:25:15.295Z,46.27
2019-04-01T09:26:15.296Z,45.79
2019-04-01T09:27:15.285Z,47.34
2019-04-01T09:28:15.285Z,47.92
2019-04-01T09:29:15.283Z,47.27
2019-04-01T09:30:18.470Z,46.03
2019-04-01T09:31:15.277Z,44.58
2019-04-01T09:32:15.288Z,44.96
2019-04-01T09:33:15.356Z,45.82
2019-04-01T09:34:15.286Z,45.92
2019-04-01T09:35:15.282Z,45.32
2019-04-01T09:36:15.287Z,45.61
2019-04-01T09:37:15.288Z,46.27
2019-04-01T09:38:15.283Z,46.27
2019-04-01T09:39:15.313Z,46.18
2019-04-01T09:40:15.278Z,45.79
2019-04-01T09:41:15.286Z,45.89
2019-04-01T09:42:15.290Z,45.99
2019-04-01T09:43:15.276Z,47.32
2019-04-01T09:44:15.278Z,46.97
2019-04-01T09:45:15.288Z,47.82
2019-04-01T09:46:15.283Z,46.22
2019-04-01T09:47:15.279Z,44.98
2019-04-01T09:48:15.280Z,44.22
2019-04-01T09:49:15.288Z,44.22
2019-04-01T09:50:15.285Z,44.67
2019-04-01T09:51:15.290Z,44.96
2019-04-01T09:52:15.290Z,45.37
2019-04-01T09:53:15.290Z,45.17
2019-04-01T09:54:15.287Z,44.70
2019-04-01T09:55:15.285Z,44.51
2019-04-01T09:56:15.300Z,44.38
2019-04-01T09:57:17.815Z,45.08
2019-04-01T09:58:15.289Z,44.12
2019-04-01T09:59:15.293Z,44.29
2019-04-01T10:00:15.295Z,44.48
2019-04-01T10:01:15.298Z,44.67
2019-04-01T10:02:15.301Z,44.58
2019-04-01T10:03:15.295Z,44.58
2019-04-01T10:04:15.297Z,44.60
2019-04-01T10:05:15.299Z,44.22
2019-04-01T10:06:15.302Z,44.12
2019-04-01T10:07:15.293Z,43.57
2019-04-01T10:08:15.304Z,43.19
2019-04-01T10:09:15.299Z,43.29
2019-04-01T10:10:15.301Z,42.61
2019-04-01T10:11:15.301Z,42.40
2019-04-01T10:12:15.309Z,43.33
2019-04-01T10:13:15.310Z,43.55
2019-04-01T10:14:15.306Z,42.96
2019-04-01T10:15:15.309Z,43.84
2019-04-01T10:16:15.304Z,45.75
2019-04-01T10:17:15.311Z,44.53
2019-04-01T10:18:15.331Z,42.90
2019-04-01T10:19:15.315Z,42.52
2019-04-01T10:20:15.318Z,41.74
2019-04-01T10:21:15.312Z,43.17
2019-04-01T10:22:15.314Z,43.26
2019-04-01T10:23:15.318Z,42.79
2019-04-01T10:24:15.320Z,42.88
2019-04-01T10:25:15.327Z,42.40
2019-04-01T10:26:15.324Z,44.22
2019-04-01T10:27:15.317Z,44.41
2019-04-01T10:28:15.319Z,43.46
2019-04-01T10:29:15.329Z,42.31
2019-04-01T10:30:15.331Z,42.40
2019-04-01T10:31:15.334Z,42.50
2019-04-01T10:32:15.336Z,43.07
2019-04-01T10:33:15.327Z,42.88
2019-04-01T10:34:15.334Z,43.26
2019-04-01T10:35:15.336Z,42.69
2019-04-01T10:36:15.334Z,42.67
2019-04-01T10:37:15.332Z,42.69
2019-04-01T10:38:15.338Z,42.97
2019-04-01T10:39:15.345Z,42.69
2019-04-01T10:40:15.341Z,42.40
2019-04-01T10:41:15.345Z,42.40
2019-04-01T10:42:15.347Z,42.97
2019-04-01T10:43:15.354Z,44.34
2019-04-01T10:44:15.352Z,42.43
2019-04-01T10:45:15.361Z,42.35
2019-04-01T10:46:15.348Z,42.08
2019-04-01T10:47:15.370Z,41.01
2019-04-01T10:48:15.376Z,43.21
2019-04-01T10:49:15.356Z,41.49
2019-04-01T10:50:15.385Z,41.22
2019-04-01T10:51:15.405Z,40.94
2019-04-01T10:52:15.404Z,40.72
2019-04-01T10:53:15.377Z,40.53
2019-04-01T10:54:15.395Z,40.25
2019-04-01T10:55:15.375Z,41.01
2019-04-01T10:56:15.387Z,40.53
2019-04-01T10:57:15.431Z,40.44
2019-04-01T10:58:15.450Z,40.63
2019-04-01T10:59:15.379Z,40.65
2019-04-01T11:00:15.377Z,41.22
2019-04-01T11:01:15.403Z,40.26
2019-04-01T11:02:18.279Z,40.17
2019-04-01T11:03:15.399Z,40.08
2019-04-01T11:04:15.377Z,39.96
2019-04-01T11:05:15.440Z,40.42
2019-04-01T11:06:15.455Z,41.56
2019-04-01T11:07:15.460Z,41.47
2019-04-01T11:08:15.413Z,41.47
2019-04-01T11:09:15.539Z,41.18
2019-04-01T11:10:15.390Z,42.24
2019-04-01T11:11:15.388Z,42.33
2019-04-01T11:12:15.390Z,42.33
2019-04-01T11:13:15.400Z,41.75
2019-04-01T11:14:15.397Z,41.85
2019-04-01T11:15:15.995Z,42.07
2019-04-01T11:16:16.203Z,42.25
2019-04-01T11:17:17.063Z,41.30
2019-04-01T11:18:15.421Z,41.11
2019-04-01T11:19:15.417Z,41.39
2019-04-01T11:20:15.415Z,41.49
2019-04-01T11:21:15.413Z,41.47
2019-04-01T11:22:15.419Z,41.38
2019-04-01T11:23:15.428Z,42.04
2019-04-01T11:24:15.417Z,41.95
2019-04-01T11:25:15.420Z,42.33
2019-04-01T11:26:15.480Z,41.38
2019-04-01T11:27:15.428Z,41.56
2019-04-01T11:28:15.426Z,41.87
2019-04-01T11:29:15.450Z,41.97
2019-04-01T11:30:15.429Z,41.49
2019-04-01T11:31:15.436Z,41.30
2019-04-01T11:32:15.444Z,41.30
2019-04-01T11:33:15.458Z,41.38
2019-04-01T11:34:15.480Z,41.47
2019-04-01T11:35:16.109Z,41.38
2019-04-01T11:36:15.440Z,42.14
2019-04-01T11:37:15.495Z,41.56
2019-04-01T11:38:15.478Z,41.68
2019-04-01T11:39:15.471Z,41.58
2019-04-01T11:40:15.495Z,41.58
2019-04-01T11:41:15.474Z,41.30
2019-04-01T11:42:15.451Z,41.58
2019-04-01T11:43:15.470Z,41.78
2019-04-01T11:44:15.494Z,42.35
2019-04-01T11:45:15.503Z,42.76
2019-04-01T11:46:15.460Z,41.13
2019-04-01T11:47:15.504Z,40.75
2019-04-01T11:48:15.457Z,40.19
2019-04-01T11:49:15.512Z,39.79
2019-04-01T11:50:15.463Z,39.98
2019-04-01T11:51:15.525Z,41.32
2019-04-01T11:52:15.962Z,40.36
2019-04-01T11:53:15.474Z,40.26
2019-04-01T11:54:15.470Z,40.84
2019-04-01T11:55:15.474Z,41.63
2019-04-01T11:56:15.492Z,40.19
2019-04-01T11:57:15.471Z,39.52
2019-04-01T11:58:15.477Z,39.33
2019-04-01T11:59:15.479Z,39.62
2019-04-01T12:00:15.484Z,39.52
2019-04-01T12:01:15.479Z,39.14
2019-04-01T12:02:16.481Z,39.60
2019-04-01T12:03:15.485Z,40.55
2019-04-01T12:04:15.489Z,41.13
2019-04-01T12:05:15.499Z,40.26
2019-04-01T12:06:15.491Z,40.36
2019-04-01T12:07:15.495Z,40.75
2019-04-01T12:08:15.494Z,40.53
2019-04-01T12:09:15.501Z,40.92
2019-04-01T12:10:15.505Z,40.82
2019-04-01T12:11:15.503Z,40.82
2019-04-01T12:12:23.398Z,40.44
2019-04-01T12:13:15.510Z,41.01
2019-04-01T12:14:15.513Z,41.30
2019-04-01T12:15:15.512Z,41.13
2019-04-01T12:16:15.528Z,40.65
2019-04-01T12:17:15.514Z,40.84
2019-04-01T12:18:15.511Z,41.80
2019-04-01T12:19:18.219Z,40.58
2019-04-01T12:20:15.520Z,39.90
2019-04-01T12:21:15.539Z,40.09
2019-04-01T12:22:15.520Z,40.09
2019-04-01T12:23:15.544Z,39.52
2019-04-01T12:24:15.520Z,39.62
2019-04-01T12:25:15.526Z,39.81
2019-04-01T12:26:16.851Z,39.60
2019-04-01T12:27:16.274Z,38.93
2019-04-01T12:28:15.529Z,40.29
2019-04-01T12:29:15.539Z,39.90
2019-04-01T12:30:15.528Z,39.89
2019-04-01T12:31:15.537Z,40.26
2019-04-01T12:32:15.534Z,40.75
2019-04-01T12:33:15.535Z,41.03
2019-04-01T12:34:15.538Z,40.65
2019-04-01T12:35:15.540Z,40.94
2019-04-01T12:36:15.548Z,40.84
2019-04-01T12:37:15.546Z,40.55
2019-04-01T12:38:15.715Z,40.94
2019-04-01T12:39:15.551Z,40.92
2019-04-01T12:40:15.548Z,41.49
2019-04-01T12:41:15.550Z,41.58
2019-04-01T12:42:16.020Z,41.58
2019-04-01T12:43:15.608Z,41.22
2019-04-01T12:44:15.549Z,41.20
2019-04-01T12:45:15.561Z,40.75
2019-04-01T12:46:15.569Z,41.32
2019-04-01T12:47:15.551Z,40.75
2019-04-01T12:48:15.554Z,40.94
2019-04-01T12:49:15.557Z,41.32
2019-04-01T12:50:15.562Z,41.22
2019-04-01T12:51:15.568Z,41.41
2019-04-01T12:52:15.554Z,41.61